sensor_id;sensor_type;location;lat;lon;timestamp;pressure;altitude;pressure_sealevel;temperature;humidity
21431;BME280;10876;49.038;10.608;2023-02-28T00:01:33;99669.41;;;-2.33;100.00
21431;BME280;10876;49.038;10.608;2023-02-28T00:04:01;99672.91;;;-2.39;100.00
21431;BME280;10876;49.038;10.608;2023-02-28T00:06:29;99674.94;;;-2.41;100.00
21431;BME280;10876;49.038;10.608;2023-02-28T00:08:56;99666.31;;;-2.43;100.00
21431;BME280;10876;49.038;10.608;2023-02-28T00:11:24;99671.25;;;-2.40;100.00
21431;BME280;10876;49.038;10.608;2023-02-28T00:13:51;99663.00;;;-2.45;100.00
21431;BME280;10876;49.038;10.608;2023-02-28T00:16:20;99665.91;;;-2.40;100.00
21431;BME280;10876;49.038;10.608;2023-02-28T00:18:48;99667.13;;;-2.36;100.00
21431;BME280;10876;49.038;10.608;2023-02-28T00:21:16;99659.91;;;-2.42;100.00
21431;BME280;10876;49.038;10.608;2023-02-28T00:23:44;99665.09;;;-2.40;100.00
21431;BME280;10876;49.038;10.608;2023-02-28T00:26:11;99668.78;;;-2.41;100.00
21431;BME280;10876;49.038;10.608;2023-02-28T00:28:38;99661.78;;;-2.36;100.00
21431;BME280;10876;49.038;10.608;2023-02-28T00:31:05;99656.22;;;-2.34;100.00
21431;BME280;10876;49.038;10.608;2023-02-28T00:33:32;99653.31;;;-2.33;100.00
21431;BME280;10876;49.038;10.608;2023-02-28T00:36:04;99661.34;;;-2.33;100.00
21431;BME280;10876;49.038;10.608;2023-02-28T00:38:31;99658.25;;;-2.36;100.00
21431;BME280;10876;49.038;10.608;2023-02-28T00:40:59;99661.53;;;-2.41;100.00
21431;BME280;10876;49.038;10.608;2023-02-28T00:43:31;99655.16;;;-2.40;100.00
21431;BME280;10876;49.038;10.608;2023-02-28T00:45:58;99649.00;;;-2.34;100.00
21431;BME280;10876;49.038;10.608;2023-02-28T00:48:25;99645.25;;;-2.39;100.00
21431;BME280;10876;49.038;10.608;2023-02-28T00:50:52;99646.50;;;-2.42;100.00
21431;BME280;10876;49.038;10.608;2023-02-28T00:53:19;99648.13;;;-2.41;100.00
21431;BME280;10876;49.038;10.608;2023-02-28T00:55:48;99637.63;;;-2.42;100.00
21431;BME280;10876;49.038;10.608;2023-02-28T00:58:17;99642.59;;;-2.46;100.00
21431;BME280;10876;49.038;10.608;2023-02-28T01:00:44;99642.59;;;-2.46;100.00
21431;BME280;10876;49.038;10.608;2023-02-28T01:03:15;99642.59;;;-2.46;100.00
21431;BME280;10876;49.038;10.608;2023-02-28T01:05:42;99637.81;;;-2.51;100.00
21431;BME280;10876;49.038;10.608;2023-02-28T01:08:09;99641.72;;;-2.53;100.00
21431;BME280;10876;49.038;10.608;2023-02-28T01:10:36;99643.16;;;-2.57;100.00
21431;BME280;10876;49.038;10.608;2023-02-28T01:13:03;99635.72;;;-2.55;100.00
21431;BME280;10876;49.038;10.608;2023-02-28T01:15:32;99634.91;;;-2.56;100.00
21431;BME280;10876;49.038;10.608;2023-02-28T01:17:59;99636.53;;;-2.61;100.00
21431;BME280;10876;49.038;10.608;2023-02-28T01:20:26;99629.13;;;-2.59;100.00
21431;BME280;10876;49.038;10.608;2023-02-28T01:22:53;99631.19;;;-2.61;100.00
21431;BME280;10876;49.038;10.608;2023-02-28T01:25:20;99626.44;;;-2.59;100.00
21431;BME280;10876;49.038;10.608;2023-02-28T01:27:47;99633.63;;;-2.66;100.00
21431;BME280;10876;49.038;10.608;2023-02-28T01:30:14;99630.13;;;-2.74;100.00
21431;BME280;10876;49.038;10.608;2023-02-28T01:32:42;99625.81;;;-2.75;100.00
21431;BME280;10876;49.038;10.608;2023-02-28T01:35:09;99622.25;;;-2.75;100.00
21431;BME280;10876;49.038;10.608;2023-02-28T01:37:36;99622.91;;;-2.73;100.00
21431;BME280;10876;49.038;10.608;2023-02-28T01:40:04;99609.72;;;-2.75;100.00
21431;BME280;10876;49.038;10.608;2023-02-28T01:42:31;99622.25;;;-2.75;100.00
21431;BME280;10876;49.038;10.608;2023-02-28T01:45:02;99620.41;;;-2.81;100.00
21431;BME280;10876;49.038;10.608;2023-02-28T01:47:31;99622.44;;;-2.90;100.00
21431;BME280;10876;49.038;10.608;2023-02-28T01:50:05;99622.19;;;-2.95;100.00
21431;BME280;10876;49.038;10.608;2023-02-28T01:52:34;99612.53;;;-2.89;100.00
21431;BME280;10876;49.038;10.608;2023-02-28T01:55:02;99615.78;;;-3.01;100.00
21431;BME280;10876;49.038;10.608;2023-02-28T01:57:33;99620.72;;;-3.04;100.00
21431;BME280;10876;49.038;10.608;2023-02-28T02:00:06;99614.56;;;-3.05;100.00
21431;BME280;10876;49.038;10.608;2023-02-28T02:02:36;99610.19;;;-3.12;100.00
21431;BME280;10876;49.038;10.608;2023-02-28T02:05:06;99608.13;;;-3.10;100.00
21431;BME280;10876;49.038;10.608;2023-02-28T02:07:35;99613.25;;;-3.15;100.00
21431;BME280;10876;49.038;10.608;2023-02-28T02:10:09;99609.75;;;-3.16;100.00
21431;BME280;10876;49.038;10.608;2023-02-28T02:13:01;99606.25;;;-3.23;100.00
21431;BME280;10876;49.038;10.608;2023-02-28T02:15:34;99598.38;;;-3.25;100.00
21431;BME280;10876;49.038;10.608;2023-02-28T02:18:06;99599.63;;;-3.21;100.00
21431;BME280;10876;49.038;10.608;2023-02-28T02:21:06;99597.34;;;-3.24;100.00
21431;BME280;10876;49.038;10.608;2023-02-28T02:24:16;99599.63;;;-3.21;100.00
21431;BME280;10876;49.038;10.608;2023-02-28T02:26:55;99600.00;;;-3.30;100.00
21431;BME280;10876;49.038;10.608;2023-02-28T02:33:05;99611.53;;;-3.30;100.00
21431;BME280;10876;49.038;10.608;2023-02-28T02:35:40;99596.69;;;-3.39;100.00
21431;BME280;10876;49.038;10.608;2023-02-28T02:38:11;99600.81;;;-3.36;100.00
21431;BME280;10876;49.038;10.608;2023-02-28T02:40:46;99603.06;;;-3.40;100.00
21431;BME280;10876;49.038;10.608;2023-02-28T02:43:20;99600.16;;;-3.45;100.00
21431;BME280;10876;49.038;10.608;2023-02-28T02:45:53;99601.19;;;-3.46;100.00
21431;BME280;10876;49.038;10.608;2023-02-28T02:48:27;99587.41;;;-3.36;100.00
21431;BME280;10876;49.038;10.608;2023-02-28T02:50:59;99588.41;;;-3.44;100.00
21431;BME280;10876;49.038;10.608;2023-02-28T02:53:30;99595.03;;;-3.40;100.00
21431;BME280;10876;49.038;10.608;2023-02-28T02:56:00;99601.56;;;-3.49;100.00
21431;BME280;10876;49.038;10.608;2023-02-28T02:58:32;99603.22;;;-3.48;100.00
21431;BME280;10876;49.038;10.608;2023-02-28T03:01:02;99599.91;;;-3.50;100.00
21431;BME280;10876;49.038;10.608;2023-02-28T03:03:31;99593.31;;;-3.54;100.00
21431;BME280;10876;49.038;10.608;2023-02-28T03:06:01;99588.34;;;-3.57;100.00
21431;BME280;10876;49.038;10.608;2023-02-28T03:08:33;99602.34;;;-3.55;100.00
21431;BME280;10876;49.038;10.608;2023-02-28T03:11:02;99605.63;;;-3.60;100.00
21431;BME280;10876;49.038;10.608;2023-02-28T03:13:52;99598.22;;;-3.58;100.00
21431;BME280;10876;49.038;10.608;2023-02-28T03:16:30;99602.50;;;-3.64;100.00
21431;BME280;10876;49.038;10.608;2023-02-28T03:19:06;99605.03;;;-3.55;100.00
21431;BME280;10876;49.038;10.608;2023-02-28T03:21:43;99594.72;;;-3.58;100.00
21431;BME280;10876;49.038;10.608;2023-02-28T03:24:18;99599.22;;;-3.66;100.00
21431;BME280;10876;49.038;10.608;2023-02-28T03:26:50;99597.53;;;-3.67;100.00
21431;BME280;10876;49.038;10.608;2023-02-28T03:29:23;99593.22;;;-3.68;100.00
21431;BME280;10876;49.038;10.608;2023-02-28T03:31:58;99594.03;;;-3.67;100.00
21431;BME280;10876;49.038;10.608;2023-02-28T03:34:29;99588.69;;;-3.67;100.00
21431;BME280;10876;49.038;10.608;2023-02-28T03:37:02;99582.28;;;-3.73;100.00
21431;BME280;10876;49.038;10.608;2023-02-28T03:39:35;99588.25;;;-3.71;100.00
21431;BME280;10876;49.038;10.608;2023-02-28T03:42:06;99587.88;;;-3.68;100.00
21431;BME280;10876;49.038;10.608;2023-02-28T03:44:38;99589.09;;;-3.70;100.00
21431;BME280;10876;49.038;10.608;2023-02-28T03:47:10;99582.75;;;-3.63;100.00
21431;BME280;10876;49.038;10.608;2023-02-28T03:49:42;99584.16;;;-3.67;100.00
21431;BME280;10876;49.038;10.608;2023-02-28T03:52:12;99591.75;;;-3.70;100.00
21431;BME280;10876;49.038;10.608;2023-02-28T03:54:42;99586.22;;;-3.69;100.00
21431;BME280;10876;49.038;10.608;2023-02-28T03:57:17;99580.88;;;-3.69;100.00
21431;BME280;10876;49.038;10.608;2023-02-28T03:59:49;99579.59;;;-3.73;100.00
21431;BME280;10876;49.038;10.608;2023-02-28T04:02:20;99583.16;;;-3.66;100.00
21431;BME280;10876;49.038;10.608;2023-02-28T04:04:46;99587.47;;;-3.65;100.00
21431;BME280;10876;49.038;10.608;2023-02-28T04:07:15;99582.69;;;-3.69;100.00
21431;BME280;10876;49.038;10.608;2023-02-28T04:09:42;99586.22;;;-3.69;100.00
21431;BME280;10876;49.038;10.608;2023-02-28T04:12:09;99587.22;;;-3.70;100.00
21431;BME280;10876;49.038;10.608;2023-02-28T04:14:36;99588.25;;;-3.71;100.00
21431;BME280;10876;49.038;10.608;2023-02-28T04:17:03;99593.47;;;-3.63;100.00
21431;BME280;10876;49.038;10.608;2023-02-28T04:19:30;99586.84;;;-3.67;100.00
21431;BME280;10876;49.038;10.608;2023-02-28T04:21:57;99587.88;;;-3.68;100.00
21431;BME280;10876;49.038;10.608;2023-02-28T04:24:27;99586.84;;;-3.67;100.00
21431;BME280;10876;49.038;10.608;2023-02-28T04:26:55;99585.38;;;-3.69;100.00
21431;BME280;10876;49.038;10.608;2023-02-28T04:29:24;99587.47;;;-3.65;100.00
21431;BME280;10876;49.038;10.608;2023-02-28T04:31:51;99584.22;;;-3.60;100.00
21431;BME280;10876;49.038;10.608;2023-02-28T04:34:19;99589.97;;;-3.63;100.00
21431;BME280;10876;49.038;10.608;2023-02-28T04:36:46;99583.16;;;-3.66;100.00
21431;BME280;10876;49.038;10.608;2023-02-28T04:39:14;99577.00;;;-3.59;100.00
21431;BME280;10876;49.038;10.608;2023-02-28T04:41:45;99581.31;;;-3.58;100.00
21431;BME280;10876;49.038;10.608;2023-02-28T04:44:12;99582.53;;;-3.61;100.00
21431;BME280;10876;49.038;10.608;2023-02-28T04:46:40;99581.53;;;-3.60;100.00
21431;BME280;10876;49.038;10.608;2023-02-28T04:49:08;99580.94;;;-3.55;100.00
21431;BME280;10876;49.038;10.608;2023-02-28T04:51:35;99580.31;;;-3.57;100.00
21431;BME280;10876;49.038;10.608;2023-02-28T04:54:02;99584.88;;;-3.51;100.00
21431;BME280;10876;49.038;10.608;2023-02-28T04:56:28;99583.84;;;-3.50;100.00
21431;BME280;10876;49.038;10.608;2023-02-28T04:58:59;99579.75;;;-3.46;100.00
21431;BME280;10876;49.038;10.608;2023-02-28T05:01:27;99583.84;;;-3.50;100.00
21431;BME280;10876;49.038;10.608;2023-02-28T05:03:57;99590.84;;;-3.49;100.00
21431;BME280;10876;49.038;10.608;2023-02-28T05:06:25;99589.84;;;-3.48;100.00
21431;BME280;10876;49.038;10.608;2023-02-28T05:08:53;99585.13;;;-3.46;100.00
21431;BME280;10876;49.038;10.608;2023-02-28T05:11:21;99588.81;;;-3.47;100.00
21431;BME280;10876;49.038;10.608;2023-02-28T05:13:50;99593.91;;;-3.52;100.00
21431;BME280;10876;49.038;10.608;2023-02-28T05:16:19;99588.78;;;-3.54;100.00
21431;BME280;10876;49.038;10.608;2023-02-28T05:18:46;99590.84;;;-3.49;100.00
21431;BME280;10876;49.038;10.608;2023-02-28T05:21:29;99583.41;;;-3.60;100.00
21431;BME280;10876;49.038;10.608;2023-02-28T05:23:57;99597.00;;;-3.55;100.00
21431;BME280;10876;49.038;10.608;2023-02-28T05:26:25;99592.91;;;-3.51;100.00
21431;BME280;10876;49.038;10.608;2023-02-28T05:28:53;99591.31;;;-3.39;100.00
21431;BME280;10876;49.038;10.608;2023-02-28T05:31:22;99595.84;;;-3.46;100.00
21431;BME280;10876;49.038;10.608;2023-02-28T05:33:49;99602.19;;;-3.47;100.00
21431;BME280;10876;49.038;10.608;2023-02-28T05:36:16;99596.59;;;-3.52;100.00
21431;BME280;10876;49.038;10.608;2023-02-28T05:38:46;99591.63;;;-3.55;100.00
21431;BME280;10876;49.038;10.608;2023-02-28T05:41:13;99587.97;;;-3.54;100.00
21431;BME280;10876;49.038;10.608;2023-02-28T05:43:40;99593.16;;;-3.46;100.00
21431;BME280;10876;49.038;10.608;2023-02-28T05:46:08;99588.81;;;-3.47;100.00
21431;BME280;10876;49.038;10.608;2023-02-28T05:48:37;99583.03;;;-3.51;100.00
21431;BME280;10876;49.038;10.608;2023-02-28T05:51:05;99580.53;;;-3.52;100.00
21431;BME280;10876;49.038;10.608;2023-02-28T05:53:33;99582.22;;;-3.51;100.00
21431;BME280;10876;49.038;10.608;2023-02-28T05:56:00;99582.22;;;-3.51;100.00
21431;BME280;10876;49.038;10.608;2023-02-28T05:58:27;99580.94;;;-3.55;100.00
21431;BME280;10876;49.038;10.608;2023-02-28T06:00:56;99587.16;;;-3.48;100.00
21431;BME280;10876;49.038;10.608;2023-02-28T06:03:23;99592.09;;;-3.52;100.00
21431;BME280;10876;49.038;10.608;2023-02-28T06:05:51;99594.97;;;-3.47;100.00
21431;BME280;10876;49.038;10.608;2023-02-28T06:08:18;99585.53;;;-3.43;100.00
21431;BME280;10876;49.038;10.608;2023-02-28T06:10:45;99590.91;;;-3.43;100.00
21431;BME280;10876;49.038;10.608;2023-02-28T06:13:12;99597.88;;;-3.48;100.00
21431;BME280;10876;49.038;10.608;2023-02-28T06:15:39;99597.66;;;-3.47;100.00
21431;BME280;10876;49.038;10.608;2023-02-28T06:18:07;99603.66;;;-3.38;100.00
21431;BME280;10876;49.038;10.608;2023-02-28T06:20:34;99596.94;;;-3.21;100.00
21431;BME280;10876;49.038;10.608;2023-02-28T06:23:03;99598.47;;;-3.11;100.00
21431;BME280;10876;49.038;10.608;2023-02-28T06:25:31;99603.38;;;-3.15;100.00
21431;BME280;10876;49.038;10.608;2023-02-28T06:27:58;99604.88;;;-3.06;100.00
21431;BME280;10876;49.038;10.608;2023-02-28T06:30:25;99603.66;;;-2.90;100.00
21431;BME280;10876;49.038;10.608;2023-02-28T06:32:55;99600.22;;;-2.70;100.00
21431;BME280;10876;49.038;10.608;2023-02-28T06:35:22;99601.91;;;-2.56;100.00
21431;BME280;10876;49.038;10.608;2023-02-28T06:37:49;99605.69;;;-2.17;100.00
21431;BME280;10876;49.038;10.608;2023-02-28T06:40:17;99602.16;;;-1.85;100.00
21431;BME280;10876;49.038;10.608;2023-02-28T06:42:44;99600.72;;;-1.94;100.00
21431;BME280;10876;49.038;10.608;2023-02-28T06:45:17;99608.97;;;-2.02;100.00
21431;BME280;10876;49.038;10.608;2023-02-28T06:47:44;99600.09;;;-2.09;100.00
21431;BME280;10876;49.038;10.608;2023-02-28T06:50:12;99611.22;;;-2.12;100.00
21431;BME280;10876;49.038;10.608;2023-02-28T06:52:39;99617.44;;;-2.05;100.00
21431;BME280;10876;49.038;10.608;2023-02-28T06:55:07;99619.91;;;-2.10;100.00
21431;BME280;10876;49.038;10.608;2023-02-28T06:57:36;99616.81;;;-2.07;100.00
21431;BME280;10876;49.038;10.608;2023-02-28T07:00:21;99620.94;;;-1.71;100.00
21431;BME280;10876;49.038;10.608;2023-02-28T07:02:52;99625.69;;;-1.73;100.00
21431;BME280;10876;49.038;10.608;2023-02-28T07:05:21;99620.09;;;-1.78;100.00
21431;BME280;10876;49.038;10.608;2023-02-28T07:07:51;99619.28;;;-1.72;100.00
21431;BME280;10876;49.038;10.608;2023-02-28T07:10:18;99629.19;;;-1.79;100.00
21431;BME280;10876;49.038;10.608;2023-02-28T07:12:47;99636.22;;;-1.78;100.00
21431;BME280;10876;49.038;10.608;2023-02-28T07:15:14;99632.69;;;-1.72;100.00
21431;BME280;10876;49.038;10.608;2023-02-28T07:17:41;99643.00;;;-1.69;100.00
21431;BME280;10876;49.038;10.608;2023-02-28T07:20:09;99639.09;;;-1.73;100.00
21431;BME280;10876;49.038;10.608;2023-02-28T07:22:36;99645.28;;;-1.66;100.00
21431;BME280;10876;49.038;10.608;2023-02-28T07:25:04;99636.97;;;-1.31;100.00
21431;BME280;10876;49.038;10.608;2023-02-28T07:27:31;99647.25;;;-1.15;100.00
21431;BME280;10876;49.038;10.608;2023-02-28T07:30:01;99655.09;;;-1.07;100.00
21431;BME280;10876;49.038;10.608;2023-02-28T07:32:29;99646.75;;;-0.85;100.00
21431;BME280;10876;49.038;10.608;2023-02-28T07:34:59;99656.25;;;-0.89;100.00
21431;BME280;10876;49.038;10.608;2023-02-28T07:37:27;99631.47;;;-0.98;100.00
21431;BME280;10876;49.038;10.608;2023-02-28T07:39:56;99643.41;;;-0.81;100.00
21431;BME280;10876;49.038;10.608;2023-02-28T07:42:23;99648.19;;;-0.44;100.00
21431;BME280;10876;49.038;10.608;2023-02-28T07:44:50;99639.25;;;-0.38;100.00
21431;BME280;10876;49.038;10.608;2023-02-28T07:47:20;99631.63;;;-0.41;100.00
21431;BME280;10876;49.038;10.608;2023-02-28T07:49:47;99645.28;;;-0.43;100.00
21431;BME280;10876;49.038;10.608;2023-02-28T07:52:14;99637.19;;;-0.05;100.00
21431;BME280;10876;49.038;10.608;2023-02-28T07:54:41;99636.09;;;0.03;100.00
21431;BME280;10876;49.038;10.608;2023-02-28T07:57:08;99635.94;;;0.23;100.00
21431;BME280;10876;49.038;10.608;2023-02-28T07:59:35;99630.19;;;0.13;100.00
21431;BME280;10876;49.038;10.608;2023-02-28T08:02:02;99627.06;;;0.16;100.00
21431;BME280;10876;49.038;10.608;2023-02-28T08:04:33;99626.69;;;0.12;100.00
21431;BME280;10876;49.038;10.608;2023-02-28T08:07:01;99633.38;;;0.28;100.00
21431;BME280;10876;49.038;10.608;2023-02-28T08:09:28;99630.19;;;-0.12;100.00
21431;BME280;10876;49.038;10.608;2023-02-28T08:11:56;99637.63;;;-0.08;100.00
21431;BME280;10876;49.038;10.608;2023-02-28T08:14:23;99652.09;;;-0.09;100.00
21431;BME280;10876;49.038;10.608;2023-02-28T08:16:49;99652.97;;;-0.15;100.00
21431;BME280;10876;49.038;10.608;2023-02-28T08:19:16;99645.56;;;-0.19;100.00
21431;BME280;10876;49.038;10.608;2023-02-28T08:21:45;99643.13;;;0.29;100.00
21431;BME280;10876;49.038;10.608;2023-02-28T08:24:12;99641.97;;;0.62;100.00
21431;BME280;10876;49.038;10.608;2023-02-28T08:26:40;99656.44;;;0.67;100.00
21431;BME280;10876;49.038;10.608;2023-02-28T08:29:07;99647.53;;;0.85;100.00
21431;BME280;10876;49.038;10.608;2023-02-28T08:31:34;99652.31;;;1.39;100.00
21431;BME280;10876;49.038;10.608;2023-02-28T08:34:05;99654.50;;;1.90;100.00
21431;BME280;10876;49.038;10.608;2023-02-28T08:36:32;99661.91;;;1.95;100.00
21431;BME280;10876;49.038;10.608;2023-02-28T08:39:00;99658.53;;;2.11;100.00
21431;BME280;10876;49.038;10.608;2023-02-28T08:41:27;99663.72;;;1.83;100.00
21431;BME280;10876;49.038;10.608;2023-02-28T08:43:54;99672.91;;;1.82;100.00
21431;BME280;10876;49.038;10.608;2023-02-28T08:46:22;99665.75;;;1.57;100.00
21431;BME280;10876;49.038;10.608;2023-02-28T08:48:51;99669.06;;;1.59;100.00
21431;BME280;10876;49.038;10.608;2023-02-28T08:51:20;99657.34;;;1.65;100.00
21431;BME280;10876;49.038;10.608;2023-02-28T08:53:52;99657.75;;;1.80;100.00
21431;BME280;10876;49.038;10.608;2023-02-28T08:56:21;99659.59;;;2.10;100.00
21431;BME280;10876;49.038;10.608;2023-02-28T08:58:50;99657.25;;;2.14;100.00
21431;BME280;10876;49.038;10.608;2023-02-28T09:01:18;99649.75;;;2.51;100.00
21431;BME280;10876;49.038;10.608;2023-02-28T09:03:46;99660.34;;;2.41;100.00
21431;BME280;10876;49.038;10.608;2023-02-28T09:06:14;99644.69;;;2.31;100.00
21431;BME280;10876;49.038;10.608;2023-02-28T09:08:42;99639.53;;;2.53;100.00
21431;BME280;10876;49.038;10.608;2023-02-28T09:11:10;99638.59;;;2.59;100.00
21431;BME280;10876;49.038;10.608;2023-02-28T09:13:39;99637.66;;;2.42;100.00
21431;BME280;10876;49.038;10.608;2023-02-28T09:16:08;99637.91;;;2.64;100.00
21431;BME280;10876;49.038;10.608;2023-02-28T09:18:35;99625.19;;;2.29;100.00
21431;BME280;10876;49.038;10.608;2023-02-28T09:21:04;99619.53;;;2.19;100.00
21431;BME280;10876;49.038;10.608;2023-02-28T09:23:31;99619.53;;;2.42;100.00
21431;BME280;10876;49.038;10.608;2023-02-28T09:25:58;99616.38;;;2.34;100.00
21431;BME280;10876;49.038;10.608;2023-02-28T09:28:25;99623.44;;;2.58;100.00
21431;BME280;10876;49.038;10.608;2023-02-28T09:30:54;99609.31;;;2.09;100.00
21431;BME280;10876;49.038;10.608;2023-02-28T09:33:23;99615.34;;;2.35;100.00
21431;BME280;10876;49.038;10.608;2023-02-28T09:35:53;99609.44;;;2.61;100.00
21431;BME280;10876;49.038;10.608;2023-02-28T09:38:27;99617.09;;;2.41;100.00
21431;BME280;10876;49.038;10.608;2023-02-28T09:40:59;99604.16;;;2.19;100.00
21431;BME280;10876;49.038;10.608;2023-02-28T09:43:29;99609.19;;;2.04;100.00
21431;BME280;10876;49.038;10.608;2023-02-28T09:46:01;99618.75;;;1.76;100.00
21431;BME280;10876;49.038;10.608;2023-02-28T09:48:35;99603.53;;;2.06;100.00
21431;BME280;10876;49.038;10.608;2023-02-28T09:51:12;99597.69;;;2.32;100.00
21431;BME280;10876;49.038;10.608;2023-02-28T09:53:42;99599.81;;;2.18;100.00
21431;BME280;10876;49.038;10.608;2023-02-28T09:56:13;99598.88;;;2.36;100.00
21431;BME280;10876;49.038;10.608;2023-02-28T09:58:46;99596.28;;;2.30;100.00
21431;BME280;10876;49.038;10.608;2023-02-28T10:01:23;99592.28;;;2.20;100.00
21431;BME280;10876;49.038;10.608;2023-02-28T10:03:56;99592.41;;;2.25;100.00
21431;BME280;10876;49.038;10.608;2023-02-28T10:06:28;99596.34;;;2.82;100.00
21431;BME280;10876;49.038;10.608;2023-02-28T10:09:01;99583.31;;;2.79;100.00
21431;BME280;10876;49.038;10.608;2023-02-28T10:11:29;99593.06;;;2.80;100.00
21431;BME280;10876;49.038;10.608;2023-02-28T10:14:00;99586.50;;;3.16;100.00
21431;BME280;10876;49.038;10.608;2023-02-28T10:16:35;99581.78;;;3.69;100.00
21431;BME280;10876;49.038;10.608;2023-02-28T10:19:06;99574.34;;;3.76;100.00
21431;BME280;10876;49.038;10.608;2023-02-28T10:21:39;99570.75;;;3.13;100.00
21431;BME280;10876;49.038;10.608;2023-02-28T10:24:18;99568.97;;;3.19;100.00
21431;BME280;10876;49.038;10.608;2023-02-28T10:26:47;99584.00;;;3.26;100.00
21431;BME280;10876;49.038;10.608;2023-02-28T10:29:15;99578.72;;;3.48;100.00
21431;BME280;10876;49.038;10.608;2023-02-28T10:31:44;99581.56;;;3.70;100.00
21431;BME280;10876;49.038;10.608;2023-02-28T10:34:12;99586.94;;;3.53;100.00
21431;BME280;10876;49.038;10.608;2023-02-28T10:36:48;99574.19;;;4.16;100.00
21431;BME280;10876;49.038;10.608;2023-02-28T10:39:39;99563.44;;;4.43;100.00
21431;BME280;10876;49.038;10.608;2023-02-28T10:42:20;99567.63;;;4.12;100.00
21431;BME280;10876;49.038;10.608;2023-02-28T10:44:47;99563.84;;;3.96;100.00
21431;BME280;10876;49.038;10.608;2023-02-28T10:47:18;99573.53;;;3.75;100.00
21431;BME280;10876;49.038;10.608;2023-02-28T10:49:47;99562.19;;;3.78;100.00
21431;BME280;10876;49.038;10.608;2023-02-28T10:52:33;99570.41;;;3.83;100.00
21431;BME280;10876;49.038;10.608;2023-02-28T10:55:15;99570.72;;;3.70;100.00
21431;BME280;10876;49.038;10.608;2023-02-28T10:57:42;99576.72;;;3.89;100.00
21431;BME280;10876;49.038;10.608;2023-02-28T11:00:15;99589.44;;;3.43;100.00
21431;BME280;10876;49.038;10.608;2023-02-28T11:02:47;99586.72;;;3.72;100.00
21431;BME280;10876;49.038;10.608;2023-02-28T11:05:25;99587.59;;;3.60;100.00
21431;BME280;10876;49.038;10.608;2023-02-28T11:07:53;99587.81;;;3.13;100.00
21431;BME280;10876;49.038;10.608;2023-02-28T11:10:24;99586.75;;;3.43;100.00
21431;BME280;10876;49.038;10.608;2023-02-28T11:12:55;99590.88;;;3.63;100.00
21431;BME280;10876;49.038;10.608;2023-02-28T11:15:25;99586.66;;;3.83;100.00
21431;BME280;10876;49.038;10.608;2023-02-28T11:17:57;99577.19;;;3.86;100.00
21431;BME280;10876;49.038;10.608;2023-02-28T11:20:27;99570.06;;;4.14;100.00
21431;BME280;10876;49.038;10.608;2023-02-28T11:22:56;99566.13;;;4.04;100.00
21431;BME280;10876;49.038;10.608;2023-02-28T11:25:25;99559.72;;;4.11;100.00
21431;BME280;10876;49.038;10.608;2023-02-28T11:27:56;99561.53;;;4.22;100.00
21431;BME280;10876;49.038;10.608;2023-02-28T11:30:31;99563.50;;;4.26;100.00
21431;BME280;10876;49.038;10.608;2023-02-28T11:33:00;99565.38;;;4.09;100.00
21431;BME280;10876;49.038;10.608;2023-02-28T11:35:31;99554.38;;;3.82;100.00
21431;BME280;10876;49.038;10.608;2023-02-28T11:38:00;99567.72;;;3.38;100.00
21431;BME280;10876;49.038;10.608;2023-02-28T11:40:38;99567.41;;;3.51;100.00
21431;BME280;10876;49.038;10.608;2023-02-28T11:43:17;99567.78;;;3.14;100.00
21431;BME280;10876;49.038;10.608;2023-02-28T11:46:02;99571.97;;;2.93;100.00
21431;BME280;10876;49.038;10.608;2023-02-28T11:48:41;99567.31;;;3.17;100.00
21431;BME280;10876;49.038;10.608;2023-02-28T11:51:15;99570.06;;;3.34;100.00
21431;BME280;10876;49.038;10.608;2023-02-28T11:53:55;99572.94;;;3.28;100.00
21431;BME280;10876;49.038;10.608;2023-02-28T11:56:31;99575.91;;;3.43;100.00
21431;BME280;10876;49.038;10.608;2023-02-28T11:59:10;99557.69;;;3.84;100.00
21431;BME280;10876;49.038;10.608;2023-02-28T12:01:56;99563.66;;;3.86;100.00
21431;BME280;10876;49.038;10.608;2023-02-28T12:04:34;99557.75;;;4.06;100.00
21431;BME280;10876;49.038;10.608;2023-02-28T12:07:16;99542.09;;;4.47;100.00
21431;BME280;10876;49.038;10.608;2023-02-28T12:09:55;99562.13;;;4.46;100.00
21431;BME280;10876;49.038;10.608;2023-02-28T12:12:36;99548.59;;;4.29;100.00
21431;BME280;10876;49.038;10.608;2023-02-28T12:15:34;99539.28;;;4.59;100.00
21431;BME280;10876;49.038;10.608;2023-02-28T12:18:24;99546.81;;;4.57;100.00
21431;BME280;10876;49.038;10.608;2023-02-28T12:21:01;99541.97;;;4.59;100.00
21431;BME280;10876;49.038;10.608;2023-02-28T12:23:44;99545.88;;;4.29;100.00
21431;BME280;10876;49.038;10.608;2023-02-28T12:26:19;99553.16;;;4.84;100.00
21431;BME280;10876;49.038;10.608;2023-02-28T12:28:53;99546.81;;;4.57;100.00
21431;BME280;10876;49.038;10.608;2023-02-28T12:31:24;99551.06;;;4.31;100.00
21431;BME280;10876;49.038;10.608;2023-02-28T12:33:58;99541.34;;;4.13;100.00
21431;BME280;10876;49.038;10.608;2023-02-28T12:36:31;99540.16;;;3.92;100.00
21431;BME280;10876;49.038;10.608;2023-02-28T12:39:03;99549.03;;;3.53;100.00
21431;BME280;10876;49.038;10.608;2023-02-28T12:41:39;99553.97;;;3.90;100.00
21431;BME280;10876;49.038;10.608;2023-02-28T12:44:11;99543.78;;;3.97;100.00
21431;BME280;10876;49.038;10.608;2023-02-28T12:46:42;99547.69;;;4.40;100.00
21431;BME280;10876;49.038;10.608;2023-02-28T12:49:14;99540.78;;;4.49;100.00
21431;BME280;10876;49.038;10.608;2023-02-28T12:51:44;99541.56;;;4.11;100.00
21431;BME280;10876;49.038;10.608;2023-02-28T12:54:18;99541.06;;;3.97;100.00
21431;BME280;10876;49.038;10.608;2023-02-28T12:56:52;99531.41;;;4.01;100.00
21431;BME280;10876;49.038;10.608;2023-02-28T12:59:25;99528.38;;;3.81;100.00
21431;BME280;10876;49.038;10.608;2023-02-28T13:02:09;99535.16;;;4.00;100.00
21431;BME280;10876;49.038;10.608;2023-02-28T13:04:55;99533.28;;;4.18;100.00